Time;durP1;ratioP1;P1;durP2;ratioP2;P2;SDS_P1;SDS_P2;PMS_P1;PMS_P2;Temp;Humidity;BMP_temperature;BMP_pressure;BME280_temperature;BME280_humidity;BME280_pressure;Samples;Min_cycle;Max_cycle;Signal;HPM_P1;HPM_P2
2021/01/27 00:01:17;;;;;;;5.40;4.40;;;;;;;-0.99;87.04;99223.94;4903247;29;20078;-74
2021/01/27 00:03:42;;;;;;;6.30;4.47;;;;;;;-1.08;86.98;99236.34;4909216;29;20028;-73
2021/01/27 00:06:08;;;;;;;4.35;3.60;;;;;;;-1.23;86.67;99230.72;4903361;29;20063;-73
2021/01/27 00:08:33;;;;;;;7.53;4.72;;;;;;;-1.20;87.59;99234.22;4909151;29;20059;-74
2021/01/27 00:10:58;;;;;;;5.82;4.28;;;;;;;-1.20;87.00;99230.81;4903133;29;20115;-75
2021/01/27 00:13:24;;;;;;;9.27;4.45;;;;;;;-1.27;87.10;99233.94;4903402;29;20410;-74
2021/01/27 00:15:49;;;;;;;5.70;4.03;;;;;;;-1.25;86.34;99232.34;4922449;29;20039;-74
2021/01/27 00:18:18;;;;;;;8.63;3.70;;;;;;;-1.21;86.52;99234.16;4909119;29;20064;-74
2021/01/27 00:20:44;;;;;;;10.07;4.43;;;;;;;-1.21;86.58;99224.00;4902829;29;20035;-74
2021/01/27 00:23:09;;;;;;;6.30;4.78;;;;;;;-1.24;86.23;99223.91;4909025;29;20028;-75
2021/01/27 00:25:36;;;;;;;7.75;4.13;;;;;;;-1.18;86.12;99224.97;4908696;29;20115;-74
2021/01/27 00:28:03;;;;;;;8.40;3.92;;;;;;;-1.36;86.32;99220.09;4907782;29;20028;-74
2021/01/27 00:30:32;;;;;;;5.22;3.85;;;;;;;-1.42;86.40;99214.78;4908763;29;21299;-74
2021/01/27 00:32:58;;;;;;;7.38;4.18;;;;;;;-1.37;87.81;99214.97;4923395;29;20727;-74
2021/01/27 00:35:28;;;;;;;6.97;3.70;;;;;;;-1.42;86.68;99204.63;4902824;29;20040;-73
2021/01/27 00:37:54;;;;;;;13.32;4.25;;;;;;;-1.44;86.85;99195.22;4908953;29;20035;-74
2021/01/27 00:40:20;;;;;;;7.90;3.95;;;;;;;-1.35;86.58;99188.81;4908522;29;20040;-74
2021/01/27 00:42:45;;;;;;;5.65;4.25;;;;;;;-1.49;86.97;99202.69;4908737;29;20092;-73
2021/01/27 00:45:11;;;;;;;10.30;3.92;;;;;;;-1.45;87.59;99199.44;4904634;29;20035;-74
2021/01/27 00:47:36;;;;;;;6.20;4.25;;;;;;;-1.43;86.53;99196.97;4908201;29;20036;-74
2021/01/27 00:50:04;;;;;;;6.50;4.03;;;;;;;-1.37;87.00;99187.88;4908459;29;20125;-73
2021/01/27 00:52:29;;;;;;;5.97;4.00;;;;;;;-1.38;86.54;99186.13;4907141;29;20031;-74
2021/01/27 00:54:54;;;;;;;5.07;3.97;;;;;;;-1.50;87.15;99183.16;4905730;29;20417;-73
2021/01/27 00:57:20;;;;;;;10.63;4.78;;;;;;;-1.56;87.55;99177.84;4906759;29;20040;-73
2021/01/27 00:59:45;;;;;;;6.97;4.30;;;;;;;-1.52;87.76;99166.13;4908226;29;20115;-74
2021/01/27 07:02:43;;;;;;;14.68;9.70;;;;;;;-1.94;89.94;98879.38;5085819;23;20659;-74
2021/01/27 07:05:23;;;;;;;12.68;8.75;;;;;;;-2.01;89.57;98865.63;4917361;29;20071;-74
2021/01/27 07:08:32;;;;;;;18.38;9.63;;;;;;;-1.96;90.16;98871.72;4866904;28;20427;-73
2021/01/27 07:11:26;;;;;;;16.25;9.77;;;;;;;-2.08;90.09;98873.84;4913847;29;20151;-73
2021/01/27 07:14:07;;;;;;;20.15;10.63;;;;;;;-2.06;90.22;98869.69;4910192;29;20071;-73
2021/01/27 07:16:40;;;;;;;15.57;9.18;;;;;;;-1.83;90.51;98866.25;4928026;23;20059;-71
2021/01/27 07:19:26;;;;;;;16.98;9.98;;;;;;;-1.79;89.63;98871.41;4917127;29;20059;-71
2021/01/27 07:21:57;;;;;;;20.63;10.30;;;;;;;-1.81;89.42;98874.75;4913759;29;20131;-71
2021/01/27 07:25:02;;;;;;;18.80;9.88;;;;;;;-1.75;89.37;98888.47;4916968;29;20040;-71
2021/01/27 07:27:31;;;;;;;19.92;10.82;;;;;;;-1.64;89.12;98894.78;4889790;29;20108;-71
2021/01/27 07:30:17;;;;;;;20.77;11.18;;;;;;;-1.63;88.97;98893.94;4897802;29;20477;-71
2021/01/27 07:32:50;;;;;;;17.60;10.00;;;;;;;-1.43;89.01;98887.81;4894055;29;20032;-71
2021/01/27 07:35:19;;;;;;;17.17;10.23;;;;;;;-1.34;88.80;98898.28;4909110;29;20063;-71
2021/01/27 07:37:57;;;;;;;22.83;10.40;;;;;;;-1.53;88.31;98906.13;4891923;29;20039;-71
2021/01/27 07:40:46;;;;;;;21.08;10.02;;;;;;;-1.59;88.41;98911.88;4893019;29;20028;-71
2021/01/27 07:43:16;;;;;;;19.27;10.32;;;;;;;-1.72;88.36;98909.75;4890674;29;20044;-71
2021/01/27 07:45:47;;;;;;;18.52;9.75;;;;;;;-1.64;88.20;98912.56;4895188;29;20040;-71
2021/01/27 07:48:22;;;;;;;15.07;9.77;;;;;;;-1.68;88.60;98901.41;4893040;29;20036;-71
2021/01/27 07:50:50;;;;;;;17.45;10.18;;;;;;;-1.52;88.55;98910.38;4896622;29;20036;-71
2021/01/27 07:53:33;;;;;;;22.17;10.85;;;;;;;-1.52;88.12;98907.84;4895901;29;20093;-71
2021/01/27 07:56:16;;;;;;;17.48;9.50;;;;;;;-1.48;88.03;98904.59;4892110;29;20043;-71
2021/01/27 07:58:53;;;;;;;19.00;10.70;;;;;;;-1.41;88.74;98916.66;4893690;29;20036;-71
2021/01/27 08:01:31;;;;;;;15.75;10.65;;;;;;;-1.43;88.63;98917.44;4895826;29;20032;-71
2021/01/27 08:04:23;;;;;;;19.85;10.02;;;;;;;-1.23;88.83;98920.59;4897593;29;20057;-71
2021/01/27 08:06:52;;;;;;;22.85;11.15;;;;;;;-1.10;88.13;98917.63;4891709;29;20029;-71
2021/01/27 08:09:32;;;;;;;16.50;11.18;;;;;;;-1.12;89.50;98915.03;4897408;29;20393;-71
2021/01/27 08:12:30;;;;;;;18.85;11.98;;;;;;;-0.94;88.27;98913.88;4897267;29;20402;-71
2021/01/27 08:15:03;;;;;;;23.90;11.75;;;;;;;-1.01;87.84;98923.00;4897009;29;20059;-71
2021/01/27 08:17:44;;;;;;;33.67;16.77;;;;;;;-0.94;87.05;98914.72;4891682;29;20024;-71
2021/01/27 08:20:25;;;;;;;26.10;12.45;;;;;;;-0.71;87.08;98915.41;4895051;29;20390;-71
2021/01/27 08:22:51;;;;;;;31.08;13.68;;;;;;;-0.55;87.97;98914.16;4897093;29;20037;-71
2021/01/27 08:25:54;;;;;;;28.38;13.25;;;;;;;-0.46;88.90;98923.72;4896896;29;20134;-71
2021/01/27 08:28:38;;;;;;;21.13;10.48;;;;;;;-0.41;87.48;98917.94;4897062;29;20028;-71
2021/01/27 08:31:07;;;;;;;17.27;10.30;;;;;;;-0.19;87.15;98919.41;4891909;29;20053;-71
2021/01/27 08:33:44;;;;;;;15.70;9.68;;;;;;;-0.17;85.62;98921.97;4896631;29;20045;-71
2021/01/27 08:36:12;;;;;;;15.90;9.23;;;;;;;-0.16;85.11;98923.69;4889372;29;20557;-71
2021/01/27 08:38:41;;;;;;;21.90;11.65;;;;;;;-0.19;85.82;98916.84;4892585;29;20402;-71
2021/01/27 08:41:11;;;;;;;18.60;10.52;;;;;;;-0.17;85.85;98919.44;4891750;29;20375;-71
2021/01/27 08:43:41;;;;;;;20.83;10.73;;;;;;;-0.04;85.86;98934.22;4896490;29;20115;-71
2021/01/27 08:46:44;;;;;;;16.88;9.35;;;;;;;-0.07;85.90;98917.16;4892960;29;20430;-71
2021/01/27 08:49:11;;;;;;;13.80;8.30;;;;;;;-0.06;85.86;98920.56;4894175;29;20040;-71
2021/01/27 08:51:48;;;;;;;19.70;8.27;;;;;;;-0.14;86.75;98922.06;4893644;29;20390;-71
2021/01/27 08:54:24;;;;;;;12.85;8.68;;;;;;;0.08;87.11;98916.69;4892227;29;20043;-71
2021/01/27 08:57:23;;;;;;;16.25;9.00;;;;;;;0.11;86.44;98914.25;4892535;29;20028;-71
2021/01/27 08:59:53;;;;;;;11.43;7.05;;;;;;;0.20;86.05;98913.63;4895642;29;20453;-71
2021/01/27 09:02:42;;;;;;;14.80;7.68;;;;;;;0.03;86.29;98918.25;4895879;29;20048;-71
2021/01/27 09:05:24;;;;;;;11.43;7.68;;;;;;;0.14;86.94;98914.28;4892118;29;20436;-71
2021/01/27 09:07:56;;;;;;;12.23;7.13;;;;;;;0.23;86.37;98917.09;4889594;29;20123;-71
2021/01/27 09:10:27;;;;;;;15.68;9.75;;;;;;;-0.04;87.63;98914.72;4893598;29;20083;-71
2021/01/27 09:12:52;;;;;;;27.35;11.43;;;;;;;-0.16;88.25;98918.59;4896215;29;20044;-71
2021/01/27 09:15:30;;;;;;;22.08;10.65;;;;;;;0.03;88.20;98902.13;4893223;29;20115;-71
2021/01/27 09:17:57;;;;;;;17.08;8.85;;;;;;;0.05;88.15;98901.34;4894628;29;20119;-71
2021/01/27 09:20:28;;;;;;;19.23;9.88;;;;;;;0.09;88.05;98903.13;4889983;29;20647;-71
2021/01/27 09:23:02;;;;;;;13.52;7.97;;;;;;;0.01;88.16;98891.91;4896311;29;20374;-71
2021/01/27 09:25:30;;;;;;;16.35;8.25;;;;;;;0.22;88.90;98894.97;4893059;29;20382;-71
2021/01/27 09:28:01;;;;;;;13.10;8.02;;;;;;;0.39;87.87;98889.47;4895175;29;20182;-71
2021/01/27 09:30:28;;;;;;;20.90;9.88;;;;;;;0.14;88.16;98893.91;4888752;29;20103;-71
2021/01/27 09:33:32;;;;;;;18.92;11.40;;;;;;;0.02;88.80;98896.16;4894244;29;20535;-71
2021/01/27 09:36:10;;;;;;;22.52;12.48;;;;;;;0.06;88.44;98895.44;4891401;29;20119;-71
2021/01/27 09:38:36;;;;;;;25.40;11.07;;;;;;;-0.10;88.27;98898.38;4895727;29;20115;-71
2021/01/27 09:41:13;;;;;;;27.75;13.80;;;;;;;-0.18;88.73;98889.72;4888251;29;20060;-69
2021/01/27 09:43:44;;;;;;;26.98;12.88;;;;;;;-0.13;88.75;98898.31;4895629;29;20494;-69
2021/01/27 09:46:25;;;;;;;19.35;11.10;;;;;;;-0.01;88.52;98898.63;4888521;29;20048;-69
2021/01/27 09:48:56;;;;;;;15.65;11.27;;;;;;;0.06;88.28;98897.97;4892269;29;20477;-69
2021/01/27 09:51:23;;;;;;;18.15;11.18;;;;;;;0.22;88.11;98892.44;4890146;29;20024;-69
2021/01/27 09:53:53;;;;;;;12.70;9.57;;;;;;;0.35;87.74;98885.09;4895164;29;20031;-69
2021/01/27 09:56:19;;;;;;;10.68;6.85;;;;;;;0.38;86.38;98885.16;4895385;29;20031;-68
2021/01/27 09:58:45;;;;;;;7.72;6.38;;;;;;;0.07;87.78;98881.88;4895392;29;20028;-68
2021/01/27 10:01:19;;;;;;;13.57;6.05;;;;;;;0.18;87.39;98880.44;4890062;29;20033;-68
2021/01/27 10:03:46;;;;;;;10.18;6.82;;;;;;;0.38;87.34;98878.38;4895368;29;20039;-68
2021/01/27 10:06:34;;;;;;;10.02;6.05;;;;;;;0.34;87.39;98875.72;4893872;29;20040;-68
2021/01/27 10:09:02;;;;;;;6.85;4.43;;;;;;;0.38;85.78;98868.19;4893174;29;20099;-68
2021/01/27 10:11:30;;;;;;;6.60;4.72;;;;;;;0.48;87.33;98864.16;4888333;29;20044;-68
2021/01/27 10:14:04;;;;;;;7.03;4.47;;;;;;;0.63;85.34;98862.00;4895114;29;20643;-68
2021/01/27 10:16:30;;;;;;;15.48;8.98;;;;;;;0.63;85.45;98864.53;4893569;29;20757;-68
2021/01/27 10:19:02;;;;;;;6.30;4.90;;;;;;;0.38;85.92;98852.03;4896624;29;20036;-68
2021/01/27 10:21:28;;;;;;;11.40;5.72;;;;;;;0.56;85.16;98842.28;4892448;29;20152;-68
2021/01/27 10:23:53;;;;;;;9.88;5.82;;;;;;;0.60;85.12;98838.09;4896883;29;21101;-71
2021/01/27 10:26:39;;;;;;;7.13;5.85;;;;;;;0.97;85.64;98829.56;4897766;29;20482;-69
2021/01/27 10:29:30;;;;;;;10.02;5.25;;;;;;;1.03;83.46;98830.56;4898957;29;20080;-69
2021/01/27 10:31:56;;;;;;;8.77;5.57;;;;;;;1.09;83.62;98834.06;4898777;29;20032;-69
2021/01/27 10:34:45;;;;;;;8.93;5.57;;;;;;;0.92;85.04;98833.69;4896621;29;20036;-69
2021/01/27 10:37:44;;;;;;;8.65;5.28;;;;;;;1.21;84.25;98830.06;4897471;29;20032;-69
2021/01/27 10:40:30;;;;;;;7.83;4.63;;;;;;;1.00;86.19;98827.06;4895775;29;20044;-69
2021/01/27 10:43:10;;;;;;;10.68;5.25;;;;;;;1.40;84.14;98820.19;4898794;29;20027;-69
2021/01/27 10:45:41;;;;;;;7.00;5.38;;;;;;;1.59;83.92;98817.16;4897340;29;20038;-69
2021/01/27 10:48:28;;;;;;;10.45;5.13;;;;;;;1.72;82.54;98819.09;4899114;29;20029;-69
2021/01/27 10:51:09;;;;;;;6.25;3.95;;;;;;;1.56;80.73;98812.00;4891756;29;20032;-69
2021/01/27 10:53:43;;;;;;;7.40;4.60;;;;;;;1.34;82.34;98809.88;4897988;29;20085;-69
2021/01/27 10:56:12;;;;;;;6.47;4.63;;;;;;;1.19;85.44;98811.31;4897861;29;20036;-69
2021/01/27 10:58:37;;;;;;;10.70;5.23;;;;;;;1.49;83.72;98815.25;4895324;29;20075;-69
2021/01/27 11:01:02;;;;;;;7.80;4.90;;;;;;;1.32;84.45;98814.97;4893889;29;20033;-69
2021/01/27 11:03:28;;;;;;;5.28;3.92;;;;;;;0.85;85.55;98819.09;4898437;29;20025;-69
2021/01/27 11:05:53;;;;;;;5.00;3.78;;;;;;;0.34;87.45;98825.63;4894056;29;20366;-71
2021/01/27 11:08:30;;;;;;;6.85;4.63;;;;;;;0.28;88.71;98825.47;4898304;29;20033;-70
2021/01/27 11:10:58;;;;;;;6.20;4.30;;;;;;;0.69;88.88;98817.91;4891565;29;21724;-71
2021/01/27 11:13:24;;;;;;;5.25;4.28;;;;;;;1.01;86.33;98821.13;4898166;29;20037;-70
2021/01/27 11:15:49;;;;;;;5.70;4.03;;;;;;;0.92;87.81;98821.81;4893597;29;20043;-70
2021/01/27 11:18:15;;;;;;;5.85;4.53;;;;;;;1.17;86.93;98818.06;4895185;29;20028;-71
2021/01/27 11:20:41;;;;;;;17.63;6.03;;;;;;;1.52;84.53;98820.44;4895168;29;20036;-70
2021/01/27 11:23:06;;;;;;;5.78;3.47;;;;;;;1.56;83.07;98812.00;4895630;29;20513;-69
2021/01/27 11:25:32;;;;;;;7.05;5.28;;;;;;;1.33;83.18;98808.16;4893451;29;20144;-69
2021/01/27 11:27:57;;;;;;;7.88;5.90;;;;;;;1.23;85.06;98797.78;4897973;29;20052;-69
2021/01/27 11:30:26;;;;;;;3.35;3.03;;;;;;;1.20;82.83;98797.69;4890192;29;20032;-69
2021/01/27 11:32:52;;;;;;;8.05;4.78;;;;;;;1.00;83.96;98799.88;4897968;29;20036;-69
2021/01/27 11:35:19;;;;;;;6.60;4.38;;;;;;;1.02;86.37;98810.13;4892505;29;20081;-69
2021/01/27 11:37:46;;;;;;;4.70;3.60;;;;;;;0.81;83.81;98805.41;4891996;29;20505;-69
2021/01/27 11:40:13;;;;;;;4.18;3.25;;;;;;;1.18;84.28;98791.72;4892587;29;20032;-69
2021/01/27 11:42:38;;;;;;;6.63;3.10;;;;;;;0.86;85.14;98796.16;4893590;29;20040;-69
2021/01/27 11:45:06;;;;;;;4.82;2.78;;;;;;;1.32;82.81;98786.03;4890685;29;20067;-69
2021/01/27 11:47:31;;;;;;;4.07;3.15;;;;;;;1.67;82.42;98779.84;4896470;29;20401;-69
2021/01/27 11:49:56;;;;;;;4.63;3.38;;;;;;;1.72;81.43;98764.63;4895649;29;21097;-69
2021/01/27 11:52:22;;;;;;;5.53;2.80;;;;;;;1.42;82.27;98772.59;4896175;29;20553;-69
2021/01/27 11:54:50;;;;;;;6.03;3.08;;;;;;;1.60;80.89;98762.72;4893673;29;20360;-70
2021/01/27 11:57:16;;;;;;;4.68;2.42;;;;;;;1.54;82.06;98757.50;4897094;29;20695;-69
2021/01/27 11:59:41;;;;;;;4.38;2.80;;;;;;;1.91;81.68;98753.88;4896390;29;20047;-69
2021/01/27 12:02:07;;;;;;;3.10;2.78;;;;;;;2.35;80.03;98740.03;4890037;29;20036;-69
2021/01/27 12:04:34;;;;;;;5.25;2.75;;;;;;;2.57;78.08;98736.94;4893771;29;21046;-69
2021/01/27 12:06:59;;;;;;;4.45;2.60;;;;;;;2.88;75.37;98742.44;4910350;29;20028;-69
2021/01/27 12:09:25;;;;;;;4.53;2.40;;;;;;;2.70;76.86;98754.16;4895404;29;20028;-69
2021/01/27 12:11:50;;;;;;;3.50;2.50;;;;;;;2.91;76.55;98747.59;4891456;29;20020;-69
2021/01/27 12:14:15;;;;;;;2.78;2.25;;;;;;;2.59;76.90;98755.72;4895333;29;20029;-69
2021/01/27 12:16:44;;;;;;;2.90;2.20;;;;;;;2.93;76.15;98761.25;4894915;29;20064;-69
2021/01/27 12:19:09;;;;;;;3.75;2.53;;;;;;;3.01;74.48;98759.66;4892106;29;20035;-69
2021/01/27 12:21:34;;;;;;;2.65;2.10;;;;;;;3.21;75.98;98752.19;4895616;29;20410;-69
2021/01/27 12:24:03;;;;;;;2.28;1.83;;;;;;;3.30;73.01;98748.03;4895505;29;20029;-69
2021/01/27 12:26:28;;;;;;;4.18;2.05;;;;;;;3.28;74.98;98743.72;4893257;29;20031;-69
2021/01/27 12:28:54;;;;;;;2.75;2.42;;;;;;;3.25;75.41;98739.44;4896956;29;20020;-69
2021/01/27 12:31:19;;;;;;;1.98;1.85;;;;;;;3.30;73.59;98721.56;4892165;29;20390;-69
2021/01/27 12:33:44;;;;;;;2.70;2.33;;;;;;;2.54;75.28;98712.16;4895718;29;20028;-69
2021/01/27 12:36:10;;;;;;;4.00;1.90;;;;;;;2.63;75.05;98715.69;4896676;29;20398;-69
2021/01/27 12:38:35;;;;;;;4.05;1.90;;;;;;;2.49;74.98;98718.06;4894790;29;20036;-69
2021/01/27 12:41:01;;;;;;;7.18;3.45;;;;;;;2.61;75.59;98718.25;4893366;29;20379;-69
2021/01/27 12:43:26;;;;;;;10.07;5.15;;;;;;;2.72;76.99;98714.09;4896561;29;20144;-69
2021/01/27 12:45:52;;;;;;;7.95;4.43;;;;;;;2.93;76.61;98720.31;4895182;29;20052;-69
2021/01/27 12:48:17;;;;;;;3.28;2.40;;;;;;;3.12;74.49;98716.25;4892932;29;20031;-69
2021/01/27 12:50:42;;;;;;;2.55;2.25;;;;;;;2.97;74.60;98711.84;4896422;29;20095;-69
2021/01/27 12:53:08;;;;;;;2.92;2.38;;;;;;;2.61;75.75;98687.56;4896566;29;20036;-75
2021/01/27 12:55:33;;;;;;;4.63;2.80;;;;;;;2.45;78.47;98671.13;4891819;29;20024;-75
2021/01/27 12:58:00;;;;;;;5.13;3.05;;;;;;;2.72;77.02;98660.38;4896386;29;20108;-74
2021/01/27 13:00:26;;;;;;;5.47;3.55;;;;;;;2.67;76.03;98651.81;4892080;29;20439;-75
2021/01/27 13:02:53;;;;;;;4.25;2.80;;;;;;;3.31;74.59;98647.31;4896516;29;20039;-74
2021/01/27 13:05:20;;;;;;;3.42;2.28;;;;;;;3.18;73.41;98650.63;4891731;29;20063;-74
2021/01/27 13:07:45;;;;;;;3.15;2.38;;;;;;;3.47;72.60;98644.88;4896157;29;20044;-75
2021/01/27 13:10:11;;;;;;;3.78;2.58;;;;;;;3.56;73.04;98642.41;4896393;29;20114;-75
2021/01/27 13:12:38;;;;;;;4.03;2.28;;;;;;;3.34;72.73;98641.38;4893341;29;20888;-74
2021/01/27 13:15:06;;;;;;;3.47;2.63;;;;;;;3.16;74.75;98636.09;4891297;29;20036;-74
2021/01/27 13:17:31;;;;;;;5.55;2.40;;;;;;;2.89;73.74;98632.41;4911319;29;20037;-74
2021/01/27 13:19:57;;;;;;;4.00;2.45;;;;;;;2.80;75.60;98632.31;4894223;29;20024;-75
2021/01/27 13:22:22;;;;;;;3.22;2.50;;;;;;;2.71;77.45;98632.25;4895708;29;20162;-74
2021/01/27 13:24:48;;;;;;;2.47;2.15;;;;;;;2.73;77.57;98633.97;4890689;29;20088;-74
2021/01/27 13:27:13;;;;;;;3.30;2.42;;;;;;;2.65;76.48;98643.25;4895257;29;20036;-75
2021/01/27 13:29:38;;;;;;;2.70;2.33;;;;;;;2.31;76.83;98632.63;4895937;29;20119;-75
2021/01/27 13:32:04;;;;;;;6.13;2.72;;;;;;;2.12;77.75;98638.31;4895393;29;20028;-74
2021/01/27 13:34:29;;;;;;;3.83;2.65;;;;;;;1.84;79.36;98636.22;4888772;29;20066;-75
2021/01/27 13:36:55;;;;;;;3.38;3.00;;;;;;;1.63;79.32;98634.22;4894236;29;20044;-74
2021/01/27 13:39:20;;;;;;;4.57;2.70;;;;;;;1.47;81.57;98633.13;4895811;29;20398;-74
2021/01/27 13:41:45;;;;;;;3.67;2.83;;;;;;;1.52;80.82;98628.97;4895605;29;20039;-74
2021/01/27 13:44:11;;;;;;;3.80;2.83;;;;;;;1.54;81.41;98629.84;4893372;29;20028;-74
2021/01/27 13:46:36;;;;;;;5.43;3.00;;;;;;;1.47;82.22;98625.47;4893261;29;20067;-74
2021/01/27 13:49:02;;;;;;;10.20;3.70;;;;;;;1.38;82.72;98628.75;4894393;29;20032;-74
2021/01/27 13:51:27;;;;;;;6.43;2.97;;;;;;;1.37;83.17;98615.97;4895531;29;20092;-74
2021/01/27 13:53:52;;;;;;;6.13;3.00;;;;;;;1.44;82.72;98622.88;4894107;29;20041;-75
2021/01/27 13:56:17;;;;;;;9.15;4.60;;;;;;;1.46;82.66;98616.97;4892282;29;20051;-74
2021/01/27 13:58:43;;;;;;;7.38;3.13;;;;;;;1.47;82.05;98610.16;4895592;29;20959;-74
2021/01/27 14:01:08;;;;;;;3.90;2.60;;;;;;;1.47;82.29;98615.28;4895303;29;20032;-74
2021/01/27 14:03:33;;;;;;;3.40;2.88;;;;;;;1.45;82.55;98614.38;4892760;29;20033;-74
2021/01/27 14:05:59;;;;;;;4.53;2.83;;;;;;;1.59;82.50;98607.78;4889882;29;20123;-74
2021/01/27 14:08:24;;;;;;;2.72;2.53;;;;;;;1.52;81.90;98622.16;4891414;29;20036;-74
2021/01/27 14:10:49;;;;;;;2.40;2.03;;;;;;;1.63;81.34;98619.75;4893504;29;20029;-74
2021/01/27 14:13:15;;;;;;;2.88;2.35;;;;;;;1.76;81.70;98621.66;4893779;29;20028;-74
2021/01/27 14:15:40;;;;;;;2.33;2.13;;;;;;;1.79;82.26;98626.84;4890738;29;20306;-74
2021/01/27 14:18:07;;;;;;;7.90;2.22;;;;;;;1.85;82.25;98609.88;4894240;29;20138;-74
2021/01/27 14:20:33;;;;;;;2.17;1.98;;;;;;;1.75;81.44;98614.84;4889983;29;20040;-74
2021/01/27 14:22:59;;;;;;;6.20;2.47;;;;;;;1.75;82.47;98607.19;4895470;29;20548;-74
2021/01/27 14:25:25;;;;;;;6.93;2.17;;;;;;;1.98;80.89;98601.50;4889550;29;20036;-74
2021/01/27 14:27:51;;;;;;;2.58;2.38;;;;;;;1.89;81.68;98593.75;4895348;29;20028;-74
2021/01/27 14:30:25;;;;;;;2.30;2.10;;;;;;;1.82;81.43;98589.38;4888056;29;20502;-74
2021/01/27 14:32:51;;;;;;;2.17;1.98;;;;;;;2.01;80.23;98588.78;4894122;29;20050;-74
2021/01/27 14:35:18;;;;;;;4.00;2.20;;;;;;;1.86;80.16;98586.03;4892023;29;20033;-74
2021/01/27 14:37:43;;;;;;;5.40;2.15;;;;;;;1.70;81.05;98596.06;4895240;29;20037;-74
2021/01/27 14:40:09;;;;;;;5.32;2.65;;;;;;;1.51;81.62;98591.50;4892808;29;20029;-75
2021/01/27 14:42:35;;;;;;;4.95;2.50;;;;;;;1.29;83.49;98588.63;4894825;29;20102;-75
2021/01/27 14:45:00;;;;;;;7.60;2.90;;;;;;;1.41;81.30;98584.56;4890688;29;20119;-75
2021/01/27 14:47:26;;;;;;;3.13;2.83;;;;;;;1.34;82.46;98580.19;4877889;29;20032;-75
2021/01/27 14:49:51;;;;;;;4.60;2.70;;;;;;;1.56;81.73;98581.38;4894071;29;20111;-75
2021/01/27 14:52:16;;;;;;;3.28;2.47;;;;;;;1.51;81.72;98588.97;4904500;29;20029;-75
2021/01/27 14:54:42;;;;;;;4.82;3.00;;;;;;;1.48;80.83;98583.78;4891252;29;20046;-75
2021/01/27 14:57:08;;;;;;;4.53;3.33;;;;;;;1.50;82.21;98597.47;4899269;29;20032;-75
2021/01/27 14:59:33;;;;;;;3.90;2.53;;;;;;;1.48;81.33;98599.97;4900919;29;20027;-75
2021/01/27 15:01:58;;;;;;;4.18;2.70;;;;;;;1.40;80.87;98600.69;4910484;29;20119;-75
2021/01/27 15:04:24;;;;;;;4.65;3.00;;;;;;;1.59;80.26;98605.22;4893847;29;20548;-75
2021/01/27 15:06:49;;;;;;;4.68;2.97;;;;;;;1.61;79.96;98595.91;4898401;29;20032;-75
2021/01/27 15:09:15;;;;;;;4.40;2.85;;;;;;;1.57;79.58;98599.25;4895623;29;20446;-75
2021/01/27 15:11:40;;;;;;;5.85;2.92;;;;;;;1.44;81.07;98599.91;4896165;29;20020;-75
2021/01/27 15:14:05;;;;;;;5.20;2.80;;;;;;;1.47;81.37;98603.38;4913316;29;20367;-75
2021/01/27 15:16:31;;;;;;;3.25;2.60;;;;;;;1.41;79.60;98607.53;4906671;29;20040;-75
2021/01/27 15:18:56;;;;;;;5.15;3.00;;;;;;;1.27;81.42;98605.59;4894387;29;20029;-75
2021/01/27 15:21:21;;;;;;;6.15;3.55;;;;;;;1.34;82.27;98604.00;4902337;29;20039;-75
2021/01/27 15:23:47;;;;;;;4.07;3.00;;;;;;;1.42;81.20;98599.03;4896152;29;20037;-75
2021/01/27 15:26:12;;;;;;;4.72;2.67;;;;;;;1.41;80.70;98604.97;4894841;29;20146;-75
2021/01/27 15:28:38;;;;;;;5.85;3.53;;;;;;;1.36;81.07;98604.03;4890982;29;20044;-75
2021/01/27 15:31:03;;;;;;;5.82;3.10;;;;;;;1.49;82.26;98600.81;4890097;29;20089;-75
2021/01/27 15:33:29;;;;;;;4.20;3.45;;;;;;;1.32;83.90;98603.13;4889937;29;20037;-75
2021/01/27 15:35:54;;;;;;;4.13;3.15;;;;;;;1.48;81.46;98599.13;4893709;29;20088;-75
2021/01/27 15:38:19;;;;;;;4.93;4.30;;;;;;;1.52;82.21;98600.88;4896802;29;20032;-75
2021/01/27 15:40:45;;;;;;;7.95;3.58;;;;;;;1.43;81.71;98605.84;4894939;29;20044;-75
2021/01/27 15:43:15;;;;;;;5.80;3.85;;;;;;;1.19;82.74;98612.28;4897264;29;20036;-75
2021/01/27 15:45:41;;;;;;;6.25;4.13;;;;;;;1.26;84.24;98601.34;4892666;29;20111;-75
2021/01/27 15:48:08;;;;;;;7.00;4.20;;;;;;;1.34;83.07;98606.56;4896520;29;20119;-75
2021/01/27 15:50:34;;;;;;;6.95;4.13;;;;;;;1.28;84.47;98607.31;4893125;29;20029;-75
2021/01/27 15:53:00;;;;;;;6.00;3.58;;;;;;;1.22;85.54;98606.38;4893042;29;20043;-75
2021/01/27 15:55:25;;;;;;;4.18;3.22;;;;;;;1.23;86.73;98614.03;4911592;29;20036;-75
2021/01/27 15:57:52;;;;;;;5.03;3.90;;;;;;;1.21;86.56;98623.38;4894831;29;20406;-75
2021/01/27 16:00:18;;;;;;;6.47;3.80;;;;;;;1.16;86.88;98612.25;4897213;29;20040;-75
2021/01/27 16:02:43;;;;;;;6.15;3.97;;;;;;;1.03;87.20;98615.41;4889696;29;20043;-75
2021/01/27 16:05:10;;;;;;;6.38;4.40;;;;;;;0.80;87.67;98609.03;4890450;29;20033;-75
2021/01/27 16:07:38;;;;;;;8.40;5.40;;;;;;;0.86;88.88;98616.78;4897180;29;20088;-74
2021/01/27 16:10:04;;;;;;;8.07;5.25;;;;;;;0.92;89.03;98617.78;4897660;29;20035;-74
2021/01/27 16:12:29;;;;;;;7.40;4.55;;;;;;;0.88;89.01;98630.44;4889961;29;20029;-75
2021/01/27 16:14:58;;;;;;;10.48;5.00;;;;;;;0.84;89.52;98628.66;4890398;29;20501;-75
2021/01/27 16:17:23;;;;;;;6.22;4.57;;;;;;;0.87;90.18;98618.50;4896588;29;20044;-74
2021/01/27 16:19:48;;;;;;;10.05;5.00;;;;;;;0.82;89.60;98625.22;4893325;29;20032;-75
2021/01/27 16:22:14;;;;;;;7.93;5.68;;;;;;;0.64;91.43;98621.50;4889694;29;20043;-75
2021/01/27 16:24:39;;;;;;;9.05;5.78;;;;;;;0.53;91.37;98628.06;4897059;29;20154;-75
2021/01/27 16:27:05;;;;;;;8.40;5.60;;;;;;;0.45;91.40;98629.63;4892625;29;20036;-75
2021/01/27 16:29:30;;;;;;;11.00;6.65;;;;;;;0.42;92.04;98609.19;4893073;29;20494;-73
2021/01/27 16:31:55;;;;;;;9.98;6.90;;;;;;;0.49;92.47;98616.13;4892351;29;20091;-73
2021/01/27 16:34:22;;;;;;;14.90;7.68;;;;;;;0.36;92.28;98624.34;4895692;29;20052;-73
2021/01/27 16:36:47;;;;;;;12.80;8.80;;;;;;;0.29;93.16;98625.03;4893221;29;20060;-73
2021/01/27 16:39:13;;;;;;;15.23;8.63;;;;;;;0.22;93.53;98627.47;4893382;29;20067;-73
2021/01/27 16:41:40;;;;;;;13.45;8.57;;;;;;;0.29;93.65;98622.50;4894395;29;20032;-73
2021/01/27 16:44:07;;;;;;;11.07;7.25;;;;;;;0.36;93.94;98629.44;4896200;29;20124;-72
2021/01/27 16:46:35;;;;;;;14.18;8.23;;;;;;;0.24;94.16;98625.84;4893758;29;20028;-73
2021/01/27 16:49:00;;;;;;;18.98;8.55;;;;;;;0.28;93.99;98625.88;4893683;29;20032;-74
2021/01/27 16:51:25;;;;;;;21.27;8.82;;;;;;;0.16;94.45;98627.34;4895370;29;20043;-74
2021/01/27 16:53:50;;;;;;;14.55;8.93;;;;;;;0.13;94.74;98624.75;4896301;29;20036;-74
2021/01/27 16:56:17;;;;;;;13.23;9.48;;;;;;;0.15;95.42;98614.59;4893822;29;20043;-74
2021/01/27 16:58:42;;;;;;;17.50;9.88;;;;;;;0.13;95.50;98624.75;4889421;29;20028;-74
2021/01/27 17:01:08;;;;;;;18.20;10.95;;;;;;;0.19;95.93;98617.25;4892606;29;20512;-74
2021/01/27 17:03:33;;;;;;;17.92;11.23;;;;;;;0.36;96.27;98624.34;4896077;29;20169;-74
2021/01/27 17:05:59;;;;;;;17.55;12.13;;;;;;;0.35;96.04;98617.53;4892510;29;20398;-73
2021/01/27 17:08:25;;;;;;;17.33;11.50;;;;;;;0.27;95.52;98619.94;4894624;29;20029;-74
2021/01/27 17:10:50;;;;;;;18.65;11.02;;;;;;;0.36;95.30;98625.22;4888385;29;20039;-74
2021/01/27 17:13:15;;;;;;;17.90;11.48;;;;;;;0.34;95.11;98624.34;4896090;29;20055;-73
2021/01/27 17:15:41;;;;;;;22.90;11.07;;;;;;;0.38;95.39;98622.69;4891915;29;20043;-73
2021/01/27 17:18:08;;;;;;;16.98;10.82;;;;;;;0.44;95.56;98617.72;4895096;29;20541;-73
2021/01/27 17:20:34;;;;;;;16.55;9.55;;;;;;;0.43;95.28;98621.09;4894802;29;20108;-73
2021/01/27 17:23:00;;;;;;;13.20;8.32;;;;;;;0.52;95.18;98626.38;4894610;29;20048;-73
2021/01/27 17:25:25;;;;;;;17.05;10.55;;;;;;;0.56;94.30;98633.25;4892247;29;20112;-73
2021/01/27 17:27:51;;;;;;;14.45;10.18;;;;;;;0.46;94.48;98632.22;4891421;29;20093;-73
2021/01/27 17:30:19;;;;;;;30.20;15.95;;;;;;;0.46;94.39;98631.34;4888474;29;21211;-73
2021/01/27 17:32:44;;;;;;;23.80;15.57;;;;;;;0.49;94.91;98632.28;4891406;29;20028;-73
2021/01/27 17:35:10;;;;;;;34.22;18.25;;;;;;;0.74;94.91;98627.66;4895436;29;20044;-73
2021/01/27 17:37:36;;;;;;;29.15;14.43;;;;;;;0.54;94.09;98634.91;4894089;29;20490;-74
2021/01/27 17:40:03;;;;;;;31.70;16.38;;;;;;;0.61;94.06;98631.66;4894749;29;20043;-73
2021/01/27 17:42:28;;;;;;;22.95;13.90;;;;;;;0.52;94.74;98631.47;4894357;29;20033;-73
2021/01/27 17:44:53;;;;;;;18.38;13.27;;;;;;;0.56;95.18;98628.16;4891499;29;20520;-73